Time;durP1;ratioP1;P1;durP2;ratioP2;P2;SDS_P1;SDS_P2;PMS_P1;PMS_P2;Temp;Humidity;BMP_temperature;BMP_pressure;BME280_temperature;BME280_humidity;BME280_pressure;Samples;Min_cycle;Max_cycle;Signal;HPM_P1;HPM_P2
2022/05/24 00:00:13;;;;;;;7.88;2.38;;;17.90;66.90;;;;;;7377228;19;20796;-83
2022/05/24 00:02:42;;;;;;;4.78;1.73;;;17.90;67.70;;;;;;7377547;19;20014;-85
2022/05/24 00:05:13;;;;;;;5.60;2.10;;;17.90;66.80;;;;;;7401617;19;20022;-85
2022/05/24 00:07:42;;;;;;;6.63;2.00;;;17.80;66.80;;;;;;7378658;19;20054;-85
2022/05/24 00:10:15;;;;;;;6.82;1.95;;;17.90;66.80;;;;;;7378231;19;20030;-85
2022/05/24 00:12:45;;;;;;;11.05;2.38;;;17.90;66.80;;;;;;7380206;19;20011;-86
2022/05/24 00:15:27;;;;;;;5.13;2.15;;;17.90;66.30;;;;;;7384150;19;20054;-83
2022/05/24 00:17:59;;;;;;;9.27;2.10;;;17.70;66.50;;;;;;7385460;19;20030;-85
2022/05/24 00:20:31;;;;;;;13.13;2.38;;;17.80;66.60;;;;;;7380028;19;20018;-84
2022/05/24 00:23:01;;;;;;;8.98;1.90;;;17.90;66.20;;;;;;7401382;19;20131;-84
2022/05/24 00:25:31;;;;;;;7.90;2.10;;;18.00;66.20;;;;;;7377700;19;20018;-84
2022/05/24 00:28:00;;;;;;;5.70;1.88;;;18.00;66.30;;;;;;7379332;19;20035;-83
2022/05/24 00:30:32;;;;;;;8.32;2.30;;;18.10;65.70;;;;;;7377728;19;20018;-84
2022/05/24 00:33:01;;;;;;;7.18;1.98;;;18.10;66.00;;;;;;7377612;19;20036;-84
2022/05/24 00:35:29;;;;;;;8.20;2.08;;;18.20;66.00;;;;;;7378726;19;20098;-82
2022/05/24 00:37:59;;;;;;;8.85;1.90;;;18.20;66.10;;;;;;7401992;19;20015;-85
2022/05/24 00:40:41;;;;;;;12.77;1.98;;;18.30;65.20;;;;;;7377930;19;20026;-86
2022/05/24 00:43:15;;;;;;;7.57;2.30;;;18.20;65.10;;;;;;7377522;19;20094;-85
2022/05/24 00:45:51;;;;;;;6.15;2.00;;;18.20;64.40;;;;;;7376587;19;20014;-84
2022/05/24 00:48:26;;;;;;;2.72;1.63;;;18.10;64.50;;;;;;7377130;19;20084;-84
2022/05/24 00:50:56;;;;;;;7.43;2.28;;;18.10;64.80;;;;;;7375206;19;20018;-83
2022/05/24 00:53:30;;;;;;;9.00;1.75;;;18.10;64.40;;;;;;7383967;19;20010;-83
2022/05/24 00:56:10;;;;;;;4.03;1.88;;;18.10;64.30;;;;;;7396141;19;20438;-84
2022/05/24 00:58:44;;;;;;;5.20;1.73;;;18.00;64.10;;;;;;7377052;19;20019;-83
2022/05/24 01:01:31;;;;;;;7.47;2.00;;;18.00;64.00;;;;;;7374457;19;20439;-83
2022/05/24 01:04:00;;;;;;;6.00;2.53;;;17.80;63.50;;;;;;7378742;19;20018;-83
2022/05/24 01:06:30;;;;;;;9.95;2.22;;;17.70;64.10;;;;;;7374781;19;20044;-83
2022/05/24 01:09:02;;;;;;;7.10;1.52;;;17.50;64.00;;;;;;7377523;19;20023;-83
2022/05/24 01:11:35;;;;;;;9.10;1.75;;;17.60;64.50;;;;;;7378810;19;20011;-83
2022/05/24 01:14:07;;;;;;;10.68;2.53;;;17.60;64.00;;;;;;7397798;19;20034;-83
2022/05/24 01:16:38;;;;;;;8.75;1.80;;;17.50;64.10;;;;;;7378538;19;20013;-84
2022/05/24 01:19:12;;;;;;;9.45;1.85;;;17.30;64.10;;;;;;7379316;19;20011;-83
2022/05/24 01:21:43;;;;;;;11.13;2.20;;;17.40;64.60;;;;;;7377458;19;20010;-83
2022/05/24 01:24:16;;;;;;;;;;;17.20;63.90;;;;;;7377648;19;20023;-84
2022/05/24 01:26:52;;;;;;;10.30;2.00;;;17.30;64.60;;;;;;7381073;19;19915;-84
2022/05/24 01:29:23;;;;;;;5.03;1.48;;;17.20;64.40;;;;;;7399313;19;20026;-79
2022/05/24 01:37:16;;;;;;;4.85;1.20;;;17.40;64.40;;;;;;7376187;19;20006;-84
2022/05/24 01:39:48;;;;;;;9.90;1.95;;;17.50;64.10;;;;;;7376671;19;20023;-84
2022/05/24 01:42:20;;;;;;;5.80;2.95;;;17.60;63.60;;;;;;7379810;19;20039;-85
2022/05/24 01:44:56;;;;;;;13.75;3.50;;;17.50;63.40;;;;;;7379124;19;20019;-85
2022/05/24 01:47:27;;;;;;;7.13;2.10;;;17.40;63.40;;;;;;7386983;19;20097;-84
2022/05/24 01:50:00;;;;;;;10.65;2.15;;;17.50;63.80;;;;;;7402620;19;20041;-85
2022/05/24 01:52:39;;;;;;;6.50;2.00;;;17.40;63.70;;;;;;7380408;19;20042;-85
2022/05/24 01:55:12;;;;;;;10.98;1.88;;;17.50;63.80;;;;;;7376863;19;20022;-85
2022/05/24 01:57:48;;;;;;;7.57;1.60;;;17.60;64.50;;;;;;7378086;19;20015;-85
2022/05/24 02:00:18;;;;;;;8.05;1.80;;;17.50;63.50;;;;;;7376200;19;20345;-85
2022/05/24 02:02:48;;;;;;;7.95;1.88;;;17.60;64.00;;;;;;7376125;19;20036;-85
2022/05/24 02:05:33;;;;;;;7.65;1.92;;;17.50;63.80;;;;;;7398467;19;20054;-84
2022/05/24 02:08:03;;;;;;;8.30;1.98;;;17.30;64.10;;;;;;7377323;19;20014;-85
2022/05/24 02:10:38;;;;;;;7.18;1.60;;;17.30;65.00;;;;;;7373113;19;20015;-85
2022/05/24 02:13:11;;;;;;;6.45;1.80;;;17.20;64.60;;;;;;7376631;19;20007;-85
2022/05/24 02:15:45;;;;;;;6.40;1.80;;;17.20;64.90;;;;;;7377697;19;20018;-85
2022/05/24 02:18:17;;;;;;;7.72;2.05;;;17.20;64.70;;;;;;7376020;19;20043;-84
2022/05/24 02:20:48;;;;;;;9.75;1.60;;;17.20;65.00;;;;;;7371105;19;20629;-84
2022/05/24 02:23:19;;;;;;;5.07;1.90;;;17.20;65.10;;;;;;7394433;19;20375;-85
2022/05/24 02:25:52;;;;;;;11.75;1.77;;;17.20;64.90;;;;;;7375062;19;20031;-84
2022/05/24 02:28:27;;;;;;;8.25;1.63;;;17.10;64.70;;;;;;7375000;19;20049;-85
2022/05/24 02:30:58;;;;;;;9.15;1.80;;;17.10;64.50;;;;;;7374925;19;20018;-84
2022/05/24 02:33:27;;;;;;;;;;;17.10;64.60;;;;;;7373224;19;20035;-84
2022/05/24 02:35:56;;;;;;;8.98;1.60;;;17.20;64.50;;;;;;7373058;19;20247;-84
2022/05/24 02:38:25;;;;;;;9.10;1.85;;;17.20;64.50;;;;;;7377959;19;20015;-85
2022/05/24 02:43:38;;;;;;;;;;;17.30;64.00;;;;;;7374693;19;20029;-84
2022/05/24 02:46:07;;;;;;;8.63;1.98;;;17.40;64.00;;;;;;7372541;19;19925;-84
2022/05/24 02:48:37;;;;;;;8.07;1.60;;;17.30;63.60;;;;;;7371685;19;20018;-84
2022/05/24 02:51:11;;;;;;;8.10;1.58;;;17.20;63.70;;;;;;7372623;19;20029;-84
2022/05/24 02:53:41;;;;;;;7.65;1.80;;;17.20;63.80;;;;;;7371010;19;20101;-84
2022/05/24 02:56:11;;;;;;;5.07;1.92;;;17.20;63.80;;;;;;7391969;19;20018;-84
2022/05/24 02:58:43;;;;;;;4.35;1.63;;;17.20;63.90;;;;;;7372583;19;20026;-84
2022/05/24 03:01:18;;;;;;;4.78;1.40;;;17.20;63.90;;;;;;7369920;19;20023;-84
2022/05/24 03:03:47;;;;;;;11.02;1.73;;;17.20;64.10;;;;;;7372242;19;20506;-84
2022/05/24 03:06:16;;;;;;;7.78;1.83;;;17.20;63.60;;;;;;7372087;19;20014;-84
2022/05/24 03:11:27;;;;;;;3.55;1.70;;;17.20;63.50;;;;;;7375137;19;20070;-83
2022/05/24 03:16:40;;;;;;;5.55;1.65;;;17.10;63.80;;;;;;7378651;19;20107;-83
2022/05/24 03:19:09;;;;;;;8.60;1.95;;;17.10;64.50;;;;;;7373183;19;20061;-85
2022/05/24 03:21:38;;;;;;;3.45;1.38;;;17.10;64.00;;;;;;7372987;19;20010;-85
2022/05/24 03:24:08;;;;;;;7.35;1.63;;;17.10;64.20;;;;;;7374693;19;20017;-85
2022/05/24 03:26:37;;;;;;;6.65;2.00;;;17.10;64.80;;;;;;7373488;19;20086;-85
2022/05/24 03:29:09;;;;;;;7.15;1.60;;;17.10;64.40;;;;;;7395801;19;20067;-85
2022/05/24 03:31:38;;;;;;;4.95;1.40;;;17.10;65.00;;;;;;7367879;19;20010;-83
2022/05/24 03:34:07;;;;;;;8.98;1.70;;;17.20;64.90;;;;;;7370890;19;20018;-84
2022/05/24 03:36:36;;;;;;;7.57;1.80;;;17.20;64.20;;;;;;7370655;19;20015;-84
2022/05/24 03:39:07;;;;;;;6.00;1.50;;;17.20;64.30;;;;;;7369449;19;20093;-84
2022/05/24 03:41:37;;;;;;;5.40;1.40;;;17.20;64.30;;;;;;7368778;19;20014;-84
2022/05/24 03:44:09;;;;;;;7.05;1.42;;;17.20;64.20;;;;;;7392790;19;20130;-85
2022/05/24 03:46:38;;;;;;;5.90;1.70;;;17.20;64.40;;;;;;7370340;19;20022;-85
2022/05/24 03:49:07;;;;;;;6.80;1.60;;;17.20;64.10;;;;;;7371084;19;20021;-84
2022/05/24 03:51:36;;;;;;;4.22;1.55;;;17.10;63.60;;;;;;7370009;19;20010;-84
2022/05/24 03:54:06;;;;;;;4.68;1.52;;;17.10;63.90;;;;;;7369978;19;20019;-84
2022/05/24 03:56:35;;;;;;;9.50;1.67;;;17.10;63.60;;;;;;7371230;19;20010;-84
2022/05/24 03:59:04;;;;;;;4.65;1.73;;;17.00;63.60;;;;;;7391960;19;20011;-84
2022/05/24 04:01:36;;;;;;;14.10;2.53;;;16.90;63.70;;;;;;7368898;19;20015;-84
2022/05/24 04:04:05;;;;;;;4.38;1.45;;;16.80;63.90;;;;;;7369818;19;20022;-80
2022/05/24 04:06:34;;;;;;;31.85;20.50;;;16.80;64.00;;;;;;7367734;19;20335;-80
2022/05/24 04:09:03;;;;;;;13.45;7.22;;;16.80;64.50;;;;;;7366199;19;20586;-83
2022/05/24 04:11:32;;;;;;;6.43;2.72;;;16.80;64.30;;;;;;7368352;19;20035;-82
2022/05/24 04:14:01;;;;;;;36.58;25.92;;;16.70;64.30;;;;;;7389617;19;20019;-82
2022/05/24 04:16:31;;;;;;;11.15;4.40;;;16.70;64.00;;;;;;7368575;19;20029;-82
2022/05/24 04:19:02;;;;;;;14.60;3.28;;;16.60;64.20;;;;;;7371246;19;20014;-82
2022/05/24 04:21:32;;;;;;;4.95;1.40;;;16.60;64.70;;;;;;7366946;19;20090;-82
2022/05/24 04:24:01;;;;;;;6.75;1.35;;;16.50;64.40;;;;;;7370670;19;20018;-81
2022/05/24 04:26:30;;;;;;;4.32;1.35;;;16.50;64.10;;;;;;7368467;19;20019;-80
2022/05/24 04:29:00;;;;;;;5.35;1.58;;;16.50;64.30;;;;;;7392066;19;20058;-81
2022/05/24 04:31:29;;;;;;;5.88;1.40;;;16.50;64.80;;;;;;7369776;19;20018;-80
2022/05/24 04:33:58;;;;;;;6.13;1.10;;;16.60;64.40;;;;;;7375314;19;20435;-85
2022/05/24 04:36:31;;;;;;;8.55;1.30;;;16.60;64.20;;;;;;7379629;19;20018;-82
2022/05/24 04:39:00;;;;;;;8.02;2.05;;;16.70;64.10;;;;;;7379730;19;20099;-81
2022/05/24 04:44:11;;;;;;;;;;;16.70;65.20;;;;;;7408410;19;20156;-83
2022/05/24 04:49:27;;;;;;;3.88;1.67;;;16.80;63.50;;;;;;7374877;19;20011;-80
2022/05/24 04:51:59;;;;;;;14.38;10.00;;;16.80;63.40;;;;;;7371100;19;20010;-79
2022/05/24 04:54:27;;;;;;;;;;;16.70;63.30;;;;;;7372703;19;20022;-77
2022/05/24 04:56:57;;;;;;;16.00;6.45;;;16.80;63.90;;;;;;7372403;19;19915;-77
2022/05/24 04:59:26;;;;;;;7.10;1.98;;;16.70;63.40;;;;;;7378632;19;20028;-79
2022/05/24 05:01:55;;;;;;;4.82;1.35;;;16.80;63.50;;;;;;7391088;19;20160;-82
2022/05/24 05:04:24;;;;;;;5.00;1.13;;;16.80;63.90;;;;;;7374660;19;20027;-80
2022/05/24 05:06:54;;;;;;;5.30;1.25;;;16.70;63.40;;;;;;7375045;19;20078;-79
2022/05/24 05:09:27;;;;;;;4.22;1.20;;;16.80;63.70;;;;;;7375424;19;20047;-84
2022/05/24 05:11:55;;;;;;;5.05;1.20;;;16.70;63.40;;;;;;7373667;19;20768;-77
2022/05/24 05:14:24;;;;;;;3.85;1.15;;;16.70;63.40;;;;;;7390552;19;20035;-78
2022/05/24 05:16:53;;;;;;;7.93;1.55;;;16.70;63.60;;;;;;7395124;19;20022;-78
2022/05/24 05:19:23;;;;;;;3.45;1.23;;;16.70;64.60;;;;;;7374973;19;20402;-81
2022/05/24 05:21:53;;;;;;;7.10;2.40;;;16.70;63.90;;;;;;7374782;19;20039;-80
2022/05/24 05:24:26;;;;;;;13.27;6.50;;;16.70;63.60;;;;;;7375057;19;20014;-80
2022/05/24 05:26:58;;;;;;;9.68;4.28;;;16.70;63.30;;;;;;7377095;19;20018;-81
2022/05/24 05:32:09;;;;;;;5.65;1.42;;;16.70;64.00;;;;;;7400465;19;20021;-83
2022/05/24 05:34:39;;;;;;;7.10;1.80;;;16.70;63.90;;;;;;7382297;19;20015;-83
2022/05/24 05:37:09;;;;;;;9.75;2.33;;;16.60;63.70;;;;;;7381152;19;20080;-82
2022/05/24 05:39:41;;;;;;;4.15;1.90;;;16.40;64.60;;;;;;7377560;19;20010;-78
2022/05/24 05:42:10;;;;;;;7.05;1.30;;;16.40;64.50;;;;;;7360562;19;20043;-80
2022/05/24 05:44:40;;;;;;;6.35;2.08;;;16.50;64.70;;;;;;7376532;19;20043;-80
2022/05/24 05:47:18;;;;;;;7.20;1.73;;;16.50;65.00;;;;;;7396706;19;20015;-81
2022/05/24 05:49:49;;;;;;;2.45;1.30;;;16.60;64.70;;;;;;7375301;19;20018;-79
2022/05/24 05:52:19;;;;;;;7.82;1.63;;;16.60;64.20;;;;;;7366992;19;20010;-81
2022/05/24 05:55:19;;;;;;;4.38;1.30;;;16.70;63.90;;;;;;7372581;19;20018;-82
2022/05/24 05:57:50;;;;;;;4.20;1.33;;;16.60;63.60;;;;;;7370840;19;20768;-81
2022/05/24 06:00:23;;;;;;;6.88;1.20;;;16.50;63.50;;;;;;7374439;19;20018;-80
2022/05/24 06:03:01;;;;;;;3.97;1.17;;;16.40;63.60;;;;;;7371355;19;20029;-85
2022/05/24 06:05:37;;;;;;;4.57;1.30;;;16.40;63.70;;;;;;7370897;19;20125;-81
2022/05/24 06:08:08;;;;;;;10.57;1.70;;;16.40;64.60;;;;;;7392807;19;20403;-80
2022/05/24 06:10:43;;;;;;;9.73;1.70;;;16.40;64.70;;;;;;7374653;19;20439;-83
2022/05/24 06:13:21;;;;;;;9.85;1.45;;;16.20;64.60;;;;;;7371360;19;20018;-83
2022/05/24 06:15:55;;;;;;;6.00;1.30;;;16.30;64.90;;;;;;7374690;19;20021;-83
2022/05/24 06:18:26;;;;;;;5.38;1.00;;;16.40;64.50;;;;;;7371126;19;20110;-83
2022/05/24 06:20:57;;;;;;;;;;;16.40;64.30;;;;;;7365835;19;20043;-81
2022/05/24 06:23:29;;;;;;;5.07;1.35;;;16.40;63.80;;;;;;7371234;19;20297;-82
2022/05/24 06:26:08;;;;;;;;;;;16.40;63.90;;;;;;7392859;19;20063;-79
2022/05/24 06:32:10;;;;;;;2.03;0.77;;;16.40;63.70;;;;;;7374886;19;20062;-84
2022/05/24 06:34:48;;;;;;;61.40;32.63;;;16.50;63.60;;;;;;7372666;19;20400;-84
2022/05/24 06:37:18;;;;;;;14.73;5.47;;;16.60;63.40;;;;;;7369697;19;20011;-83
2022/05/24 06:39:48;;;;;;;4.85;1.75;;;16.70;63.80;;;;;;7381289;19;20018;-81
2022/05/24 06:42:40;;;;;;;11.43;2.25;;;16.80;63.30;;;;;;7381429;19;20011;-88
2022/05/24 06:45:13;;;;;;;7.97;2.03;;;16.80;63.40;;;;;;7372948;19;20014;-82
2022/05/24 06:47:46;;;;;;;5.30;1.23;;;16.90;61.90;;;;;;7371713;19;20019;-78
2022/05/24 06:50:17;;;;;;;11.43;1.77;;;16.80;62.60;;;;;;7396659;19;20039;-84
2022/05/24 06:52:47;;;;;;;4.25;1.20;;;16.80;62.60;;;;;;7371855;19;20048;-79
2022/05/24 06:55:18;;;;;;;3.78;1.30;;;16.90;62.60;;;;;;7367812;19;20114;-81
2022/05/24 06:57:52;;;;;;;;;;;16.80;62.30;;;;;;7369919;19;20047;-79
2022/05/24 07:03:12;;;;;;;11.55;1.33;;;16.80;62.30;;;;;;7369265;19;21062;-78
2022/05/24 07:05:45;;;;;;;6.22;1.40;;;16.80;62.50;;;;;;7367376;19;20014;-77
2022/05/24 07:08:17;;;;;;;3.30;0.90;;;16.70;62.30;;;;;;7386667;19;20014;-78
2022/05/24 07:10:48;;;;;;;4.97;1.02;;;16.90;62.60;;;;;;7367182;19;20018;-77
2022/05/24 07:13:24;;;;;;;4.68;1.30;;;16.80;60.90;;;;;;7365627;19;20034;-77
2022/05/24 07:15:56;;;;;;;5.13;1.00;;;16.90;61.60;;;;;;7368122;19;20534;-77
2022/05/24 07:18:29;;;;;;;2.65;1.10;;;16.90;60.40;;;;;;7367958;19;20018;-77
2022/05/24 07:24:12;;;;;;;3.90;1.17;;;17.10;61.30;;;;;;7367648;19;20018;-78
2022/05/24 07:26:43;;;;;;;4.22;1.08;;;17.10;59.50;;;;;;7365833;19;20332;-78
2022/05/24 07:29:19;;;;;;;3.08;0.90;;;17.20;60.50;;;;;;7388558;19;20025;-78
2022/05/24 07:31:51;;;;;;;7.68;1.23;;;17.30;60.20;;;;;;7364929;19;20031;-78
2022/05/24 07:34:23;;;;;;;2.75;0.88;;;17.30;60.00;;;;;;7366798;19;20018;-78
2022/05/24 07:36:57;;;;;;;4.47;1.10;;;17.20;59.40;;;;;;7368282;19;20342;-78
2022/05/24 07:39:29;;;;;;;3.13;1.17;;;17.10;59.50;;;;;;7366356;19;20391;-78
2022/05/24 07:47:50;;;;;;;5.65;1.10;;;17.00;59.40;;;;;;7366735;19;20018;-77
2022/05/24 07:50:21;;;;;;;4.78;1.05;;;17.10;59.90;;;;;;7388057;19;20010;-79
2022/05/24 07:53:01;;;;;;;3.22;1.45;;;17.10;59.00;;;;;;7364375;19;20046;-81
2022/05/24 07:55:39;;;;;;;27.55;15.20;;;17.20;59.10;;;;;;7367134;19;20500;-81
2022/05/24 07:58:17;;;;;;;8.02;3.72;;;17.30;58.50;;;;;;7365537;19;20018;-79
2022/05/24 08:00:51;;;;;;;9.95;4.50;;;17.20;58.80;;;;;;7367070;19;20719;-78
2022/05/24 08:03:24;;;;;;;5.32;1.85;;;17.40;59.50;;;;;;7365416;19;20572;-78
2022/05/24 08:05:59;;;;;;;3.28;1.20;;;17.40;59.10;;;;;;7370715;19;20041;-79
2022/05/24 08:08:32;;;;;;;4.25;1.15;;;17.60;58.70;;;;;;7371305;19;20462;-78
2022/05/24 08:11:02;;;;;;;5.25;1.08;;;17.70;57.90;;;;;;7399350;19;20011;-78
2022/05/24 08:13:35;;;;;;;9.93;1.17;;;17.80;57.70;;;;;;7371399;19;20093;-78
2022/05/24 08:16:14;;;;;;;5.35;1.20;;;17.90;57.90;;;;;;7373661;19;20446;-78
2022/05/24 08:18:48;;;;;;;3.55;1.02;;;17.70;56.80;;;;;;7374962;19;20033;-78
2022/05/24 08:21:24;;;;;;;6.63;0.80;;;17.80;57.30;;;;;;7371057;19;20018;-78
2022/05/24 08:24:01;;;;;;;2.97;0.90;;;17.70;57.70;;;;;;7370311;19;20007;-77
2022/05/24 08:26:39;;;;;;;3.17;0.88;;;17.60;57.00;;;;;;7372115;19;20022;-77
2022/05/24 08:29:24;;;;;;;3.60;0.75;;;17.80;57.50;;;;;;7395447;19;20011;-78
2022/05/24 08:32:11;;;;;;;6.22;0.98;;;17.70;57.50;;;;;;7371357;19;20010;-78
2022/05/24 08:34:57;;;;;;;4.55;1.10;;;17.90;58.10;;;;;;7353616;19;20388;-78
2022/05/24 08:37:34;;;;;;;3.20;0.82;;;18.00;56.40;;;;;;7364046;19;20027;-78
2022/05/24 08:40:20;;;;;;;2.50;0.82;;;18.10;56.60;;;;;;7345688;19;20019;-78
2022/05/24 08:43:15;;;;;;;6.47;1.00;;;18.00;55.70;;;;;;7368122;19;20007;-78
2022/05/24 08:49:03;;;;;;;5.80;1.00;;;18.00;55.40;;;;;;7349069;19;20351;-78
2022/05/24 08:51:48;;;;;;;3.70;1.15;;;17.90;55.20;;;;;;7344597;19;20431;-78
2022/05/24 08:54:39;;;;;;;4.90;1.10;;;18.00;55.90;;;;;;7356738;19;20375;-78
2022/05/24 08:57:29;;;;;;;2.80;1.08;;;18.10;56.50;;;;;;7370132;19;20411;-77
2022/05/24 09:00:15;;;;;;;3.30;0.80;;;18.20;55.90;;;;;;7360073;19;20885;-78
2022/05/24 09:03:11;;;;;;;4.38;1.00;;;18.10;56.50;;;;;;7362337;19;20047;-79
2022/05/24 09:06:02;;;;;;;3.65;1.00;;;18.20;56.20;;;;;;7370024;19;20082;-79
2022/05/24 09:08:46;;;;;;;4.18;0.80;;;18.00;55.90;;;;;;7354473;19;20006;-78
2022/05/24 09:11:47;;;;;;;4.20;0.85;;;17.90;56.00;;;;;;7392967;19;20026;-78
2022/05/24 09:14:29;;;;;;;6.55;0.98;;;17.90;56.30;;;;;;7374665;19;20032;-78
2022/05/24 09:17:22;;;;;;;4.35;1.15;;;17.90;54.90;;;;;;7374204;19;20011;-78
2022/05/24 09:20:01;;;;;;;4.95;1.00;;;17.90;54.80;;;;;;7372951;19;20044;-78
2022/05/24 09:22:47;;;;;;;5.87;1.17;;;17.70;54.70;;;;;;7369627;19;20330;-78
2022/05/24 09:25:29;;;;;;;4.75;0.93;;;17.60;55.20;;;;;;7367679;19;20019;-78
2022/05/24 09:28:09;;;;;;;4.45;1.13;;;17.70;55.80;;;;;;7369801;19;20015;-78
2022/05/24 09:30:58;;;;;;;3.00;0.93;;;17.70;56.00;;;;;;7368637;19;20011;-77
2022/05/24 09:33:52;;;;;;;4.93;0.75;;;17.80;54.60;;;;;;7344227;19;20655;-78
2022/05/24 09:36:55;;;;;;;4.93;0.93;;;18.20;55.00;;;;;;7347700;19;20013;-79
2022/05/24 09:39:34;;;;;;;2.03;0.65;;;18.40;54.00;;;;;;7368548;19;20427;-79
2022/05/24 09:42:20;;;;;;;5.18;1.10;;;18.60;54.00;;;;;;7374011;19;20023;-79
2022/05/24 09:45:06;;;;;;;9.68;2.25;;;18.80;53.60;;;;;;7372478;19;20011;-79
2022/05/24 09:47:59;;;;;;;8.45;1.17;;;18.70;52.60;;;;;;7368787;19;20017;-79
2022/05/24 09:50:53;;;;;;;3.78;1.15;;;18.70;52.70;;;;;;7367462;19;20358;-79
2022/05/24 09:53:31;;;;;;;10.27;1.50;;;18.50;52.20;;;;;;7391225;19;20039;-78
2022/05/24 09:56:33;;;;;;;5.30;1.08;;;18.40;52.70;;;;;;7373008;19;20376;-78
2022/05/24 09:59:10;;;;;;;4.38;0.85;;;18.40;53.10;;;;;;7372848;19;20338;-78
2022/05/24 10:01:56;;;;;;;5.65;1.08;;;18.40;51.20;;;;;;7369691;19;20118;-79
2022/05/24 10:04:46;;;;;;;4.95;0.80;;;18.50;52.10;;;;;;7369781;19;20014;-80
2022/05/24 10:07:28;;;;;;;6.60;1.13;;;18.60;52.50;;;;;;7364022;19;20027;-79
2022/05/24 10:10:13;;;;;;;5.85;1.08;;;18.80;52.20;;;;;;7340502;19;20006;-78
2022/05/24 10:16:05;;;;;;;7.20;1.85;;;19.00;50.00;;;;;;7370038;19;20339;-80
2022/05/24 10:18:53;;;;;;;2.55;1.10;;;19.00;49.70;;;;;;7371935;19;20501;-80
2022/05/24 10:21:33;;;;;;;4.30;1.42;;;19.00;50.20;;;;;;7362796;19;20021;-82
2022/05/24 10:27:24;;;;;;;10.63;1.00;;;18.90;49.80;;;;;;7372402;19;20077;-78
2022/05/24 10:30:00;;;;;;;8.70;1.25;;;18.80;50.50;;;;;;7373403;19;20014;-77
2022/05/24 10:38:28;;;;;;;6.80;1.08;;;18.80;51.30;;;;;;7370646;19;20450;-77
2022/05/24 10:41:06;;;;;;;3.67;0.82;;;19.00;50.90;;;;;;7371526;19;20010;-78
2022/05/24 10:43:51;;;;;;;2.03;0.63;;;19.10;50.00;;;;;;7369368;19;20077;-78
2022/05/24 10:46:30;;;;;;;2.72;0.70;;;19.10;48.60;;;;;;7371053;19;20105;-78
2022/05/24 10:49:07;;;;;;;6.28;0.80;;;19.20;49.00;;;;;;7367944;19;20486;-78
2022/05/24 10:51:40;;;;;;;3.72;0.77;;;19.40;49.50;;;;;;7369490;19;20018;-78
2022/05/24 10:54:14;;;;;;;3.35;0.80;;;19.50;49.00;;;;;;7370385;19;20018;-78
2022/05/24 10:56:47;;;;;;;4.28;1.00;;;19.60;48.40;;;;;;7369842;19;20010;-77
2022/05/24 10:59:23;;;;;;;2.50;0.95;;;19.50;48.80;;;;;;7393121;19;20045;-78
2022/05/24 11:02:00;;;;;;;5.05;0.75;;;19.40;49.40;;;;;;7367553;19;20018;-78
2022/05/24 11:04:39;;;;;;;3.92;0.63;;;19.50;48.80;;;;;;7371961;19;20027;-79
2022/05/24 11:07:14;;;;;;;4.50;1.20;;;19.50;49.00;;;;;;7371348;19;20090;-78
2022/05/24 11:09:49;;;;;;;5.07;0.80;;;19.50;48.70;;;;;;7369868;19;20010;-77
2022/05/24 11:12:23;;;;;;;2.78;0.73;;;19.50;48.40;;;;;;7372042;19;20068;-77
2022/05/24 11:14:58;;;;;;;4.30;0.60;;;19.50;48.80;;;;;;7371259;19;20093;-77
2022/05/24 11:17:30;;;;;;;3.53;1.00;;;19.50;48.70;;;;;;7368071;19;20022;-78
2022/05/24 11:19:59;;;;;;;1.52;0.70;;;19.60;48.60;;;;;;7394200;19;20039;-79
2022/05/24 11:22:33;;;;;;;3.25;0.88;;;19.40;48.60;;;;;;7370116;19;20446;-78
2022/05/24 11:25:11;;;;;;;7.53;0.88;;;19.40;48.70;;;;;;7370145;19;20018;-78
2022/05/24 11:27:43;;;;;;;4.15;1.05;;;19.30;49.30;;;;;;7368797;19;20038;-76
2022/05/24 11:31:00;;;;;;;5.32;1.20;;;19.20;48.80;;;;;;7371203;19;20078;-83
2022/05/24 11:33:41;;;;;;;9.68;5.32;;;19.20;49.70;;;;;;7375106;19;20035;-78
2022/05/24 11:36:39;;;;;;;5.15;1.15;;;19.30;48.70;;;;;;7373630;19;20018;-79
2022/05/24 11:39:13;;;;;;;2.08;0.80;;;19.40;48.60;;;;;;7375146;19;20454;-80
2022/05/24 11:41:42;;;;;;;5.22;0.93;;;19.50;48.80;;;;;;7375065;19;20031;-79
2022/05/24 11:44:31;;;;;;;3.67;0.70;;;19.40;48.90;;;;;;7406022;19;20048;-79
2022/05/24 11:47:00;;;;;;;1.92;0.60;;;19.60;49.50;;;;;;7386228;19;20082;-80
2022/05/24 11:50:02;;;;;;;3.40;0.60;;;19.70;48.80;;;;;;7383364;19;20743;-77
2022/05/24 11:53:03;;;;;;;2.22;0.40;;;19.80;47.80;;;;;;7384221;19;20014;-77
2022/05/24 11:56:16;;;;;;;6.03;0.80;;;19.90;48.00;;;;;;7384870;19;20011;-78
2022/05/24 11:58:48;;;;;;;7.72;0.98;;;20.00;47.50;;;;;;7383688;19;20031;-78
2022/05/24 12:01:51;;;;;;;3.85;1.20;;;20.10;47.70;;;;;;7384543;19;20044;-78
2022/05/24 12:10:12;;;;;;;2.63;0.80;;;20.30;46.30;;;;;;7380787;19;20010;-77
2022/05/24 12:12:53;;;;;;;3.92;0.65;;;20.40;46.30;;;;;;7381908;19;20011;-77
2022/05/24 12:15:25;;;;;;;7.50;1.33;;;20.40;46.90;;;;;;7382640;19;20029;-77
2022/05/24 12:17:55;;;;;;;6.32;0.70;;;20.40;46.40;;;;;;7382493;19;20131;-77
2022/05/24 12:20:56;;;;;;;3.55;0.60;;;20.20;46.50;;;;;;7403096;19;20010;-77
2022/05/24 12:23:38;;;;;;;7.72;0.88;;;20.20;46.60;;;;;;7278363;19;2005279;-77
2022/05/24 12:26:12;;;;;;;4.93;0.65;;;20.20;46.80;;;;;;7401099;19;20132;-78
2022/05/24 12:28:50;;;;;;;4.65;0.85;;;20.20;46.80;;;;;;7380796;19;20050;-77
2022/05/24 12:31:32;;;;;;;5.28;0.93;;;20.30;47.80;;;;;;7378406;19;20014;-78
2022/05/24 12:34:01;;;;;;;;;;;20.20;47.60;;;;;;7379637;19;20089;-78
2022/05/24 12:36:38;;;;;;;2.28;0.60;;;20.20;47.50;;;;;;7381046;19;19923;-78
2022/05/24 12:39:16;;;;;;;3.42;0.50;;;20.00;46.80;;;;;;7380988;19;20015;-77
2022/05/24 12:41:49;;;;;;;3.95;0.95;;;19.90;46.50;;;;;;7379750;19;20454;-79
2022/05/24 12:44:22;;;;;;;2.50;0.50;;;20.00;47.60;;;;;;7402195;19;20107;-78
2022/05/24 12:46:54;;;;;;;5.53;0.60;;;20.00;47.50;;;;;;7383014;19;20027;-78
2022/05/24 12:49:25;;;;;;;1.77;0.50;;;20.10;47.80;;;;;;7383426;19;20106;-77
2022/05/24 12:51:57;;;;;;;4.32;0.70;;;20.10;48.00;;;;;;7382077;19;20018;-79
2022/05/24 12:54:31;;;;;;;6.78;0.95;;;20.30;47.30;;;;;;7371810;19;20566;-77
2022/05/24 12:57:07;;;;;;;3.63;0.60;;;20.40;47.40;;;;;;7374125;19;20089;-78
2022/05/24 12:59:40;;;;;;;12.82;0.93;;;20.50;47.80;;;;;;7375008;19;20039;-78
2022/05/24 13:02:30;;;;;;;3.40;0.65;;;20.60;46.10;;;;;;7392658;19;20030;-77
2022/05/24 13:05:04;;;;;;;2.17;0.90;;;20.70;47.10;;;;;;7374864;19;20006;-77
2022/05/24 13:07:43;;;;;;;4.75;0.85;;;20.70;47.40;;;;;;7373692;19;20026;-77
2022/05/24 13:10:27;;;;;;;4.65;0.73;;;20.70;47.20;;;;;;7373938;19;20022;-77
2022/05/24 13:13:03;;;;;;;3.50;0.90;;;20.80;47.50;;;;;;7373756;19;20014;-78
2022/05/24 13:15:35;;;;;;;6.13;1.00;;;20.80;47.40;;;;;;7373635;19;20015;-77
2022/05/24 13:18:08;;;;;;;3.72;1.02;;;20.80;47.10;;;;;;7374985;19;20032;-77
2022/05/24 13:20:40;;;;;;;3.85;0.82;;;20.80;47.70;;;;;;7371793;19;20377;-77
2022/05/24 13:23:21;;;;;;;3.25;0.80;;;20.80;46.90;;;;;;7392649;19;20018;-78
2022/05/24 13:25:52;;;;;;;4.60;1.10;;;21.00;46.60;;;;;;7373314;19;20549;-77
2022/05/24 13:28:42;;;;;;;4.05;1.25;;;21.00;46.20;;;;;;7375988;19;20039;-78
2022/05/24 13:33:55;;;;;;;2.53;0.63;;;21.10;44.90;;;;;;7373978;19;20040;-77
2022/05/24 13:36:26;;;;;;;0.82;0.57;;;21.20;44.50;;;;;;7372700;19;20323;-78
2022/05/24 13:39:20;;;;;;;4.22;0.50;;;21.20;45.20;;;;;;7371505;19;20015;-78
2022/05/24 13:42:05;;;;;;;2.50;0.82;;;21.30;45.20;;;;;;7371820;19;20050;-77
2022/05/24 13:44:38;;;;;;;3.13;0.90;;;21.50;45.20;;;;;;7371412;19;20085;-78
2022/05/24 13:47:09;;;;;;;2.47;0.80;;;21.60;44.60;;;;;;7392493;19;20014;-77
2022/05/24 13:49:45;;;;;;;2.65;0.68;;;21.60;45.00;;;;;;7371617;19;20007;-77
2022/05/24 13:52:30;;;;;;;2.05;0.65;;;21.60;45.10;;;;;;7372184;19;20019;-77
2022/05/24 13:55:21;;;;;;;2.58;0.60;;;21.20;43.60;;;;;;7372704;19;20524;-77
2022/05/24 13:57:56;;;;;;;1.80;0.70;;;21.10;43.90;;;;;;7371584;19;20097;-77
2022/05/24 14:00:42;;;;;;;2.85;0.73;;;21.00;43.90;;;;;;7372464;19;20026;-77
2022/05/24 14:03:31;;;;;;;2.22;0.70;;;20.70;44.50;;;;;;7370372;19;20364;-77
2022/05/24 14:06:08;;;;;;;3.20;0.60;;;20.80;45.10;;;;;;7369915;19;20011;-77
2022/05/24 14:08:39;;;;;;;5.32;0.57;;;20.90;44.90;;;;;;7371642;19;20043;-77
2022/05/24 14:11:13;;;;;;;5.78;0.70;;;21.00;44.30;;;;;;7391756;19;20022;-77
2022/05/24 14:13:43;;;;;;;2.55;0.70;;;21.20;45.50;;;;;;7371723;19;20188;-77
2022/05/24 14:16:17;;;;;;;4.88;0.90;;;21.40;44.80;;;;;;7371673;19;20024;-77
2022/05/24 14:18:46;;;;;;;2.25;0.50;;;21.70;44.20;;;;;;7371482;19;20050;-77
2022/05/24 14:21:15;;;;;;;1.58;0.63;;;21.50;43.00;;;;;;7371779;19;20066;-77
2022/05/24 14:23:44;;;;;;;10.15;0.80;;;21.60;44.40;;;;;;7369150;19;20022;-77
2022/05/24 14:26:13;;;;;;;5.07;0.82;;;21.90;45.20;;;;;;7393507;19;20023;-77
2022/05/24 14:28:42;;;;;;;4.10;0.70;;;22.00;43.30;;;;;;7369608;19;20018;-77
2022/05/24 14:31:12;;;;;;;2.20;0.80;;;22.10;42.30;;;;;;7370113;19;20139;-77